createdAt,value
2023-03-29T00:00:09.024Z,0.34
2023-03-29T00:02:38.854Z,0.29
2023-03-29T00:05:06.898Z,0.27
2023-03-29T00:07:33.738Z,0.20
2023-03-29T00:10:01.478Z,0.12
2023-03-29T00:12:28.928Z,0.03
2023-03-29T00:14:55.735Z,0.03
2023-03-29T00:17:22.676Z,-0.02
2023-03-29T00:19:49.544Z,-0.04
2023-03-29T00:22:16.643Z,-0.13
2023-03-29T00:24:43.443Z,-0.20
2023-03-29T00:27:10.257Z,-0.14
2023-03-29T00:29:36.979Z,-0.23
2023-03-29T00:32:03.841Z,-0.24
2023-03-29T00:34:36.177Z,-0.21
2023-03-29T00:37:04.606Z,-0.24
2023-03-29T00:39:31.321Z,-0.24
2023-03-29T00:41:58.134Z,-0.28
2023-03-29T00:44:54.269Z,-0.16
2023-03-29T00:47:25.420Z,-0.22
2023-03-29T00:49:52.946Z,-0.26
2023-03-29T00:52:24.300Z,-0.25
2023-03-29T00:54:54.009Z,-0.01
2023-03-29T00:57:21.235Z,-0.16
2023-03-29T00:59:48.652Z,-0.09
2023-03-29T01:02:16.627Z,-0.06
2023-03-29T01:04:51.027Z,-0.05
2023-03-29T01:07:41.739Z,0.05
2023-03-29T01:10:13.362Z,0.00
2023-03-29T01:12:45.350Z,0.09
2023-03-29T01:15:14.648Z,0.21
2023-03-29T01:17:44.588Z,0.20
2023-03-29T01:20:27.122Z,0.16
2023-03-29T01:23:14.197Z,0.21
2023-03-29T01:25:48.254Z,0.21
2023-03-29T01:28:18.165Z,0.18
2023-03-29T01:30:55.051Z,0.16
2023-03-29T01:33:26.078Z,0.14
2023-03-29T01:36:16.578Z,0.11
2023-03-29T01:38:48.529Z,0.16
2023-03-29T01:41:15.440Z,0.12
2023-03-29T01:43:50.695Z,0.06
2023-03-29T01:46:37.761Z,-0.02
2023-03-29T01:49:11.342Z,-0.04
2023-03-29T01:52:06.673Z,0.02
2023-03-29T01:54:37.573Z,-0.14
2023-03-29T01:57:05.861Z,-0.19
2023-03-29T01:59:34.927Z,-0.24
2023-03-29T02:02:06.077Z,-0.28
2023-03-29T02:04:36.487Z,-0.30
2023-03-29T02:07:05.990Z,-0.35
2023-03-29T02:09:33.755Z,-0.38
2023-03-29T02:12:04.591Z,-0.42
2023-03-29T02:14:32.734Z,-0.46
2023-03-29T02:17:25.182Z,-0.49
2023-03-29T02:20:17.682Z,-0.52
2023-03-29T02:23:04.688Z,-0.51
2023-03-29T02:25:32.991Z,-0.51
2023-03-29T02:28:01.029Z,-0.56
2023-03-29T02:31:15.787Z,-0.53
2023-03-29T02:33:57.342Z,-0.55
2023-03-29T02:36:30.799Z,-0.63
2023-03-29T02:38:59.548Z,-0.61
2023-03-29T02:41:26.597Z,-0.56
2023-03-29T02:43:53.592Z,-0.55
2023-03-29T02:46:21.109Z,-0.52
2023-03-29T02:48:49.939Z,-0.53
2023-03-29T02:51:22.993Z,-0.50
2023-03-29T02:54:00.285Z,-0.46
2023-03-29T02:56:27.342Z,-0.43
2023-03-29T02:58:54.074Z,-0.39
2023-03-29T03:01:21.249Z,-0.37
2023-03-29T03:03:50.751Z,-0.36
2023-03-29T03:06:18.400Z,-0.28
2023-03-29T03:08:45.911Z,-0.23
2023-03-29T03:11:14.363Z,-0.24
2023-03-29T03:13:41.128Z,-0.22
2023-03-29T03:16:09.376Z,-0.20
2023-03-29T03:18:36.392Z,-0.18
2023-03-29T03:21:05.096Z,-0.19
2023-03-29T03:23:32.106Z,-0.21
2023-03-29T03:25:59.231Z,-0.19
2023-03-29T03:28:27.454Z,-0.03
2023-03-29T03:30:54.820Z,0.00
2023-03-29T03:33:24.992Z,-0.03
2023-03-29T03:36:12.563Z,-0.13
2023-03-29T03:38:44.135Z,-0.20
2023-03-29T03:41:11.789Z,-0.17
2023-03-29T03:43:41.555Z,-0.23
2023-03-29T03:46:08.770Z,-0.25
2023-03-29T03:48:36.039Z,-0.28
2023-03-29T03:51:09.646Z,-0.26
2023-03-29T03:53:36.620Z,-0.31
2023-03-29T03:56:15.309Z,-0.29
2023-03-29T03:58:57.356Z,-0.21
2023-03-29T04:01:27.373Z,-0.26
2023-03-29T04:04:08.459Z,-0.23
2023-03-29T04:06:35.468Z,-0.19
2023-03-29T04:09:22.762Z,-0.15
2023-03-29T04:12:00.648Z,-0.17
2023-03-29T04:14:28.080Z,-0.14
2023-03-29T04:17:05.802Z,-0.14
2023-03-29T04:20:11.132Z,-0.12
2023-03-29T04:22:40.522Z,-0.15
2023-03-29T04:25:11.864Z,-0.07
2023-03-29T04:28:00.889Z,-0.11
2023-03-29T04:30:52.564Z,-0.18
2023-03-29T04:33:36.709Z,-0.17
2023-03-29T04:36:09.483Z,-0.11
2023-03-29T04:38:43.351Z,0.00
2023-03-29T04:41:15.330Z,-0.01
2023-03-29T04:44:02.730Z,0.07
2023-03-29T04:46:32.405Z,0.16
2023-03-29T04:49:19.794Z,0.18
2023-03-29T04:51:53.497Z,0.26
2023-03-29T04:54:23.775Z,0.28
2023-03-29T04:57:09.195Z,0.34
2023-03-29T04:59:55.164Z,0.43
2023-03-29T05:02:51.076Z,0.46
2023-03-29T05:05:17.970Z,0.51
2023-03-29T05:07:46.686Z,0.59
2023-03-29T05:10:15.133Z,0.71
2023-03-29T05:12:42.634Z,0.77
2023-03-29T05:15:10.013Z,0.78
2023-03-29T05:17:37.628Z,0.88
2023-03-29T05:20:13.266Z,0.98
2023-03-29T05:22:45.999Z,1.10
2023-03-29T05:25:22.589Z,1.26
2023-03-29T05:27:49.449Z,1.42
2023-03-29T05:30:17.097Z,1.57
2023-03-29T05:32:49.922Z,1.63
2023-03-29T05:35:26.650Z,1.85
2023-03-29T05:37:55.864Z,2.00
2023-03-29T05:40:22.780Z,2.03
2023-03-29T05:43:16.259Z,2.12
2023-03-29T05:45:43.339Z,2.15
2023-03-29T05:48:10.813Z,2.02
2023-03-29T05:50:41.228Z,1.98
2023-03-29T05:53:08.145Z,2.05
2023-03-29T05:55:35.466Z,2.11
2023-03-29T05:58:02.656Z,2.21
2023-03-29T06:00:34.457Z,2.28
2023-03-29T06:03:21.178Z,2.45
2023-03-29T06:05:56.353Z,2.63
2023-03-29T06:08:23.603Z,2.88
2023-03-29T06:11:06.785Z,3.13
2023-03-29T06:13:53.944Z,3.36
2023-03-29T06:16:20.905Z,3.66
2023-03-29T06:18:48.060Z,3.91
2023-03-29T06:21:15.094Z,4.21
2023-03-29T06:23:41.978Z,4.53
2023-03-29T06:26:10.615Z,4.64
2023-03-29T06:28:38.295Z,4.87
2023-03-29T06:31:05.737Z,5.10
2023-03-29T06:33:40.475Z,5.23
2023-03-29T06:36:16.316Z,5.35
2023-03-29T06:38:45.618Z,5.54
2023-03-29T06:41:25.269Z,5.59
2023-03-29T06:44:11.607Z,5.68
2023-03-29T06:46:50.806Z,5.88
2023-03-29T06:49:19.287Z,5.97
2023-03-29T06:52:11.308Z,6.23
2023-03-29T06:54:39.098Z,6.58
2023-03-29T06:57:08.364Z,6.85
2023-03-29T06:59:36.281Z,7.21
2023-03-29T07:02:24.060Z,7.54
2023-03-29T07:04:56.273Z,7.91
2023-03-29T07:07:53.124Z,8.24
2023-03-29T07:10:33.879Z,8.50
2023-03-29T07:13:20.309Z,8.57
2023-03-29T07:15:50.363Z,8.74
2023-03-29T07:18:22.078Z,8.79
2023-03-29T07:20:49.423Z,8.90
2023-03-29T07:23:34.995Z,9.11
2023-03-29T07:26:02.838Z,9.17
2023-03-29T07:28:30.738Z,9.06
2023-03-29T07:31:11.110Z,9.10
2023-03-29T07:33:44.858Z,9.24
2023-03-29T07:36:12.032Z,9.45
2023-03-29T07:38:38.744Z,9.52
2023-03-29T07:41:13.674Z,9.61
2023-03-29T07:43:47.458Z,9.79
2023-03-29T07:46:17.633Z,9.98
2023-03-29T07:48:44.560Z,10.15
2023-03-29T07:51:21.302Z,10.27
2023-03-29T07:53:49.928Z,10.41
2023-03-29T07:56:35.184Z,10.51
2023-03-29T07:59:22.404Z,10.54
2023-03-29T08:01:58.880Z,10.60
2023-03-29T08:04:32.695Z,10.90
2023-03-29T08:07:19.049Z,11.18
2023-03-29T08:10:05.616Z,11.28
2023-03-29T08:13:04.350Z,11.44
2023-03-29T08:15:46.324Z,11.48
2023-03-29T08:18:23.192Z,11.48
2023-03-29T08:20:51.052Z,11.72
2023-03-29T08:23:21.340Z,11.95
2023-03-29T08:26:22.366Z,11.88
2023-03-29T08:28:50.752Z,12.11
2023-03-29T08:31:18.759Z,12.25
2023-03-29T08:33:45.724Z,12.35
2023-03-29T08:36:30.000Z,12.47
2023-03-29T08:39:03.093Z,12.46
2023-03-29T08:41:45.204Z,12.63
2023-03-29T08:44:24.054Z,12.67
2023-03-29T08:47:09.456Z,12.84
2023-03-29T08:49:41.801Z,12.78
2023-03-29T08:52:24.424Z,12.91
2023-03-29T08:54:53.003Z,13.04
2023-03-29T08:57:27.204Z,13.02
2023-03-29T09:00:02.034Z,12.98
2023-03-29T09:02:32.589Z,13.10
2023-03-29T09:05:31.149Z,13.17
2023-03-29T09:08:17.581Z,13.41
2023-03-29T09:11:08.151Z,13.73
2023-03-29T09:14:10.500Z,13.93
2023-03-29T09:17:05.423Z,13.85
2023-03-29T09:19:41.319Z,13.74
2023-03-29T09:22:20.867Z,13.66
2023-03-29T09:25:06.031Z,13.57
2023-03-29T09:27:49.722Z,13.58
2023-03-29T09:30:44.655Z,13.43
2023-03-29T09:33:28.974Z,13.29
2023-03-29T09:36:37.140Z,13.19
2023-03-29T09:39:04.578Z,13.21
2023-03-29T09:41:41.334Z,13.29
2023-03-29T09:44:28.217Z,13.35
2023-03-29T09:47:08.829Z,13.37
2023-03-29T09:49:40.435Z,13.44
2023-03-29T09:52:13.482Z,13.48
2023-03-29T09:54:45.739Z,13.61
2023-03-29T09:57:33.049Z,13.70
2023-03-29T10:00:05.770Z,13.65
2023-03-29T10:02:40.698Z,13.59
2023-03-29T10:05:15.937Z,13.57
2023-03-29T10:07:50.208Z,13.58
2023-03-29T10:10:34.865Z,13.58
2023-03-29T10:13:19.151Z,13.62
2023-03-29T10:16:05.830Z,13.71
2023-03-29T10:18:35.288Z,13.70
2023-03-29T10:21:04.526Z,13.44
2023-03-29T10:23:36.315Z,13.29
2023-03-29T10:26:06.588Z,13.11
2023-03-29T10:28:35.091Z,12.64
2023-03-29T10:31:04.959Z,12.59
2023-03-29T10:33:34.138Z,12.42
2023-03-29T10:36:06.695Z,12.58
2023-03-29T10:38:38.754Z,12.47
2023-03-29T10:41:10.117Z,12.69
2023-03-29T10:43:39.516Z,12.71
2023-03-29T10:46:11.040Z,12.90
2023-03-29T10:48:37.967Z,12.93
2023-03-29T10:51:06.121Z,13.07
2023-03-29T10:53:34.871Z,12.90
2023-03-29T10:56:13.901Z,13.19
2023-03-29T10:59:03.732Z,13.24
2023-03-29T11:02:02.846Z,13.10
2023-03-29T11:04:48.385Z,13.08
2023-03-29T11:07:49.108Z,13.19
2023-03-29T11:10:33.299Z,13.36
2023-03-29T11:13:15.423Z,13.64
2023-03-29T11:15:51.114Z,13.77
2023-03-29T11:19:17.464Z,13.84
2023-03-29T11:22:08.843Z,13.54
2023-03-29T11:24:50.424Z,14.00
2023-03-29T11:27:19.926Z,14.21
2023-03-29T11:30:07.247Z,14.18
2023-03-29T11:32:48.640Z,14.35
2023-03-29T11:35:27.465Z,14.43
2023-03-29T11:38:12.730Z,14.54
2023-03-29T11:40:47.794Z,14.42
2023-03-29T11:43:23.007Z,14.75
2023-03-29T11:45:58.664Z,14.88
2023-03-29T11:48:34.717Z,15.11
2023-03-29T11:51:11.309Z,14.94
2023-03-29T11:53:57.080Z,14.52
2023-03-29T11:56:37.029Z,14.03
2023-03-29T11:59:28.308Z,13.73
2023-03-29T12:01:57.414Z,13.42
2023-03-29T12:04:38.514Z,13.46
2023-03-29T12:07:24.303Z,13.65
2023-03-29T12:09:59.272Z,13.63
2023-03-29T12:12:41.097Z,13.82
2023-03-29T12:15:16.097Z,13.95
2023-03-29T12:18:01.551Z,13.87
2023-03-29T12:20:34.064Z,13.70
2023-03-29T12:23:02.497Z,13.44
2023-03-29T12:26:06.609Z,13.26
2023-03-29T12:29:00.187Z,13.10
2023-03-29T12:32:06.777Z,12.71
2023-03-29T12:35:02.842Z,12.53
2023-03-29T12:38:24.107Z,12.28
2023-03-29T12:41:16.951Z,11.99
2023-03-29T12:44:15.763Z,11.77
2023-03-29T12:46:58.816Z,11.50
2023-03-29T12:49:32.818Z,11.43
2023-03-29T12:52:00.754Z,11.35
2023-03-29T12:54:31.189Z,11.35
2023-03-29T12:57:01.677Z,11.30
2023-03-29T12:59:44.529Z,11.17
2023-03-29T13:02:14.525Z,10.92
2023-03-29T13:04:44.275Z,10.85
2023-03-29T13:07:15.339Z,10.65
2023-03-29T13:10:09.296Z,10.51
2023-03-29T13:12:39.755Z,10.32
2023-03-29T13:15:23.547Z,10.26
2023-03-29T13:17:53.350Z,10.17
2023-03-29T13:20:37.432Z,10.10
2023-03-29T13:23:26.589Z,10.03
2023-03-29T13:26:19.102Z,10.00
2023-03-29T13:28:57.261Z,10.15
2023-03-29T13:32:13.618Z,10.21
2023-03-29T13:34:45.774Z,10.33
2023-03-29T13:37:18.464Z,10.46
2023-03-29T13:39:51.253Z,10.60
2023-03-29T13:42:23.715Z,10.75
2023-03-29T13:44:51.048Z,10.92
2023-03-29T13:47:33.254Z,11.21
2023-03-29T13:50:07.199Z,11.34
2023-03-29T13:52:39.327Z,11.45
2023-03-29T13:55:13.622Z,11.79
2023-03-29T13:58:06.625Z,12.05
2023-03-29T14:00:50.170Z,12.26
2023-03-29T14:03:20.827Z,12.36
2023-03-29T14:05:49.576Z,12.49
2023-03-29T14:08:29.482Z,12.52
2023-03-29T14:10:57.167Z,12.46
2023-03-29T14:13:25.058Z,12.42
2023-03-29T14:16:12.014Z,12.27
2023-03-29T14:18:42.559Z,12.00
2023-03-29T14:21:12.194Z,11.95
2023-03-29T14:23:38.943Z,11.92
2023-03-29T14:26:25.320Z,11.84
2023-03-29T14:28:56.398Z,11.75
2023-03-29T14:31:26.417Z,11.64
2023-03-29T14:33:54.573Z,11.58
2023-03-29T14:36:22.073Z,11.40
2023-03-29T14:38:54.236Z,11.21
2023-03-29T14:41:24.274Z,11.07
2023-03-29T14:43:51.633Z,11.03
2023-03-29T14:46:21.464Z,11.11
2023-03-29T14:48:48.396Z,11.25
2023-03-29T14:51:15.229Z,11.21
2023-03-29T14:53:42.634Z,11.23
2023-03-29T14:56:11.929Z,11.37
2023-03-29T14:58:40.027Z,11.34
2023-03-29T15:01:14.647Z,11.34
2023-03-29T15:04:05.531Z,11.18
2023-03-29T15:06:34.850Z,11.11
2023-03-29T15:09:06.153Z,10.95
2023-03-29T15:11:34.872Z,10.78
2023-03-29T15:14:05.365Z,10.62
2023-03-29T15:16:33.512Z,10.56
2023-03-29T15:19:01.852Z,10.52
2023-03-29T15:21:32.789Z,10.46
2023-03-29T15:24:02.145Z,10.44
2023-03-29T15:26:34.487Z,10.31
2023-03-29T15:29:13.995Z,10.25
2023-03-29T15:31:42.995Z,10.25
2023-03-29T15:34:14.439Z,10.15
2023-03-29T15:36:48.257Z,10.02
2023-03-29T15:39:17.303Z,9.97
2023-03-29T15:41:51.581Z,9.85
2023-03-29T15:44:36.412Z,9.82
2023-03-29T15:47:03.483Z,9.72
2023-03-29T15:49:30.365Z,9.66
2023-03-29T15:51:57.316Z,9.57
2023-03-29T15:54:24.954Z,9.55
2023-03-29T15:56:53.728Z,9.48
2023-03-29T15:59:20.660Z,9.51
2023-03-29T16:01:47.651Z,9.45
2023-03-29T16:04:16.998Z,9.47
2023-03-29T16:06:47.687Z,9.46
2023-03-29T16:09:15.323Z,9.44
2023-03-29T16:11:43.383Z,9.35
2023-03-29T16:14:27.535Z,9.34
2023-03-29T16:16:57.296Z,9.32
2023-03-29T16:19:28.701Z,9.30
2023-03-29T16:21:56.197Z,9.29
2023-03-29T16:24:26.359Z,9.21
2023-03-29T16:26:55.715Z,9.22
2023-03-29T16:29:23.731Z,9.27
2023-03-29T16:31:51.192Z,9.24
2023-03-29T16:34:19.242Z,9.18
2023-03-29T16:36:49.473Z,9.17
2023-03-29T16:39:16.734Z,9.13
2023-03-29T16:41:45.358Z,9.06
2023-03-29T16:44:22.944Z,9.05
2023-03-29T16:46:52.747Z,9.01
2023-03-29T16:49:19.615Z,8.98
2023-03-29T16:51:47.365Z,8.93
2023-03-29T16:54:15.145Z,8.87
2023-03-29T16:56:44.177Z,8.80
2023-03-29T16:59:12.141Z,8.77
2023-03-29T17:01:40.857Z,8.72
2023-03-29T17:04:07.950Z,8.68
2023-03-29T17:06:34.749Z,8.64
2023-03-29T17:09:01.500Z,8.60
2023-03-29T17:11:29.018Z,8.51
2023-03-29T17:13:55.832Z,8.50
2023-03-29T17:16:23.138Z,8.30
2023-03-29T17:18:50.100Z,8.35
2023-03-29T17:21:16.843Z,8.28
2023-03-29T17:23:43.664Z,8.25
2023-03-29T17:26:11.957Z,8.19
2023-03-29T17:28:38.881Z,8.12
2023-03-29T17:31:07.641Z,8.07
2023-03-29T17:33:35.473Z,8.04
2023-03-29T17:36:03.603Z,7.92
2023-03-29T17:38:35.244Z,7.92
2023-03-29T17:41:03.040Z,7.86
2023-03-29T17:43:30.114Z,7.86
2023-03-29T17:45:56.889Z,7.85
2023-03-29T17:48:24.299Z,7.88
2023-03-29T17:50:55.425Z,7.84
2023-03-29T17:53:24.892Z,7.80
2023-03-29T17:55:52.364Z,7.80
2023-03-29T17:58:19.687Z,7.66
2023-03-29T18:00:46.430Z,7.67
2023-03-29T18:03:13.172Z,7.68
2023-03-29T18:05:39.978Z,7.66
2023-03-29T18:08:06.753Z,7.62
2023-03-29T18:10:36.958Z,7.61
2023-03-29T18:13:03.819Z,7.59
2023-03-29T18:15:30.552Z,7.56
2023-03-29T18:17:57.659Z,7.60
2023-03-29T18:20:24.446Z,7.60
2023-03-29T18:22:51.248Z,7.52
2023-03-29T18:25:18.494Z,7.51
2023-03-29T18:27:45.493Z,7.52
2023-03-29T18:30:15.788Z,7.41
2023-03-29T18:32:42.820Z,7.39
2023-03-29T18:35:10.343Z,7.42
2023-03-29T18:37:37.092Z,7.44
2023-03-29T18:40:08.206Z,7.33
2023-03-29T18:42:35.280Z,7.33
2023-03-29T18:45:02.236Z,7.33
2023-03-29T18:47:29.376Z,7.36
2023-03-29T18:49:56.116Z,7.30
2023-03-29T18:52:23.468Z,7.35
2023-03-29T18:54:50.220Z,7.34
2023-03-29T18:57:17.009Z,7.35
2023-03-29T18:59:43.818Z,7.30
2023-03-29T19:02:12.829Z,7.36
2023-03-29T19:04:39.568Z,7.37
2023-03-29T19:07:06.862Z,7.30
2023-03-29T19:09:33.664Z,7.21
2023-03-29T19:12:02.583Z,7.17
2023-03-29T19:14:29.672Z,7.21
2023-03-29T19:16:56.810Z,7.14
2023-03-29T19:19:25.037Z,7.12
2023-03-29T19:21:53.003Z,7.16
2023-03-29T19:24:19.811Z,7.22
2023-03-29T19:26:50.274Z,7.21
2023-03-29T19:29:17.074Z,7.18
2023-03-29T19:31:43.883Z,7.22
2023-03-29T19:34:11.221Z,7.21
2023-03-29T19:36:38.317Z,7.24
2023-03-29T19:39:05.885Z,7.21
2023-03-29T19:41:32.857Z,7.24
2023-03-29T19:43:59.684Z,7.28
2023-03-29T19:46:28.200Z,7.22
2023-03-29T19:48:56.327Z,7.17
2023-03-29T19:51:23.637Z,7.18
2023-03-29T19:53:50.448Z,7.22
2023-03-29T19:56:17.886Z,7.23
2023-03-29T19:58:44.689Z,7.23
2023-03-29T20:01:11.471Z,7.27
2023-03-29T20:03:39.110Z,7.23
2023-03-29T20:06:08.191Z,7.25
2023-03-29T20:08:39.051Z,7.26
2023-03-29T20:11:11.340Z,7.23
2023-03-29T20:13:39.320Z,7.28
2023-03-29T20:16:13.766Z,7.33
2023-03-29T20:18:40.784Z,7.34
2023-03-29T20:21:09.038Z,7.32
2023-03-29T20:23:38.791Z,7.32
2023-03-29T20:26:07.819Z,7.30
2023-03-29T20:28:37.869Z,7.34
2023-03-29T20:31:08.081Z,7.27
2023-03-29T20:33:34.938Z,7.26
2023-03-29T20:36:01.731Z,7.30
2023-03-29T20:38:28.770Z,7.25
2023-03-29T20:40:55.539Z,7.22
2023-03-29T20:43:22.295Z,7.25
2023-03-29T20:45:53.917Z,7.28
2023-03-29T20:48:23.558Z,7.34
2023-03-29T20:50:51.036Z,7.33
2023-03-29T20:53:20.797Z,7.38
2023-03-29T20:55:48.114Z,7.45
2023-03-29T20:58:15.996Z,7.32
2023-03-29T21:00:43.861Z,7.27
2023-03-29T21:03:11.227Z,7.27
2023-03-29T21:05:39.004Z,7.30
2023-03-29T21:08:06.552Z,7.30
2023-03-29T21:10:33.478Z,7.22
2023-03-29T21:13:01.574Z,7.27
2023-03-29T21:15:30.768Z,7.38
2023-03-29T21:17:58.727Z,7.43
2023-03-29T21:20:28.503Z,7.40
2023-03-29T21:22:55.253Z,7.30
2023-03-29T21:25:22.276Z,7.35
2023-03-29T21:27:49.303Z,7.36
2023-03-29T21:30:16.300Z,7.33
2023-03-29T21:32:43.162Z,7.34
2023-03-29T21:35:10.556Z,7.38
2023-03-29T21:37:37.476Z,7.38
2023-03-29T21:40:11.050Z,7.32
2023-03-29T21:42:37.881Z,7.28
2023-03-29T21:45:05.076Z,7.18
2023-03-29T21:47:31.842Z,7.07
2023-03-29T21:49:58.562Z,7.00
2023-03-29T21:52:25.610Z,6.88
2023-03-29T21:54:52.466Z,6.85
2023-03-29T21:57:19.231Z,6.88
2023-03-29T21:59:46.172Z,6.68
2023-03-29T22:02:12.949Z,6.60
2023-03-29T22:04:39.699Z,6.48
2023-03-29T22:07:10.771Z,6.46
2023-03-29T22:09:37.931Z,6.41
2023-03-29T22:12:05.222Z,6.38
2023-03-29T22:14:35.337Z,6.37
2023-03-29T22:17:05.878Z,6.34
2023-03-29T22:19:34.089Z,6.35
2023-03-29T22:22:01.769Z,6.32
2023-03-29T22:24:29.312Z,6.35
2023-03-29T22:26:56.150Z,6.35
2023-03-29T22:29:24.935Z,6.41
2023-03-29T22:31:51.722Z,6.31
2023-03-29T22:34:20.690Z,6.33
2023-03-29T22:36:47.452Z,6.31
2023-03-29T22:39:14.158Z,6.37
2023-03-29T22:41:41.215Z,6.34
2023-03-29T22:44:08.161Z,6.38
2023-03-29T22:46:34.894Z,6.31
2023-03-29T22:49:03.860Z,6.38
2023-03-29T22:51:30.698Z,6.44
2023-03-29T22:53:57.517Z,6.39
2023-03-29T22:56:25.021Z,6.41
2023-03-29T22:58:52.111Z,6.42
2023-03-29T23:01:19.088Z,6.34
2023-03-29T23:03:45.858Z,6.31
2023-03-29T23:06:12.654Z,6.31
2023-03-29T23:08:41.902Z,6.22
2023-03-29T23:11:08.714Z,6.19
2023-03-29T23:13:40.046Z,6.19
2023-03-29T23:16:07.728Z,6.12
2023-03-29T23:18:35.011Z,6.16
2023-03-29T23:21:02.706Z,6.09
2023-03-29T23:23:29.702Z,6.05
2023-03-29T23:25:56.704Z,6.05
2023-03-29T23:28:30.496Z,5.99
2023-03-29T23:31:06.162Z,6.04
2023-03-29T23:33:35.765Z,6.12
2023-03-29T23:36:04.894Z,6.20
2023-03-29T23:38:33.365Z,6.17
2023-03-29T23:41:02.729Z,6.19
2023-03-29T23:43:32.849Z,6.24
2023-03-29T23:46:17.061Z,6.27
2023-03-29T23:48:46.394Z,6.23
2023-03-29T23:51:13.437Z,6.26
2023-03-29T23:53:40.159Z,6.22
2023-03-29T23:56:08.190Z,6.18
2023-03-29T23:58:37.537Z,6.13
